D51 weather

Clarence Aerodrome
Buffalo, New York, United States

Public forecast

Using degrees Fahrenheit for public forecast. Weather courtesy of forecast.io.

METAR (pilot weather report)

Closest report is Buffalo Niagara International Airport, 7.9 nm (14.6 km) SSW. Retrieved 2019/06/20 13:10 UTC (4 minutes ago):

KBUF 201310Z 02009KT 6SM RA BR FEW007 OVC015 17/16 A2958

TAF (pilot weather forecast)

Closest forecast is Buffalo Niagara International Airport, 7.9 nm (14.6 km) SSW. Retrieved 2019/06/20 12:22 UTC (52 minutes ago):

TAF KBUF 201120Z 2012/2112 05006KT 5SM -RA BKN015 TEMPO 2012/2014 2SM RA BR BKN007 FM201400 03006KT 3SM RA BR OVC007 FM201800 03008KT 4SM -RA BR OVC007 FM202200 03006KT 5SM -SHRA BR SCT007 OVC015 FM210400 36006KT P6SM VCSH BKN025 FM210800 34006KT P6SM BKN045